sensor_id;sensor_type;location;lat;lon;timestamp;P1;durP1;ratioP1;P2;durP2;ratioP2
27367;SDS011;14839;48.106;11.618;2022-08-07T04:00:44;5.90;;;3.20;;
27367;SDS011;14839;48.106;11.618;2022-08-07T04:03:12;3.80;;;3.10;;
27367;SDS011;14839;48.106;11.618;2022-08-07T04:05:38;5.37;;;3.23;;
27367;SDS011;14839;48.106;11.618;2022-08-07T04:08:03;3.73;;;3.10;;
27367;SDS011;14839;48.106;11.618;2022-08-07T04:10:29;4.33;;;3.27;;
27367;SDS011;14839;48.106;11.618;2022-08-07T04:12:56;4.00;;;3.60;;
27367;SDS011;14839;48.106;11.618;2022-08-07T04:15:22;3.63;;;3.17;;
27367;SDS011;14839;48.106;11.618;2022-08-07T04:17:48;5.50;;;3.53;;
27367;SDS011;14839;48.106;11.618;2022-08-07T04:20:14;5.53;;;3.50;;
27367;SDS011;14839;48.106;11.618;2022-08-07T04:22:40;3.87;;;3.47;;
27367;SDS011;14839;48.106;11.618;2022-08-07T04:25:07;4.67;;;3.77;;
27367;SDS011;14839;48.106;11.618;2022-08-07T04:27:33;3.50;;;3.13;;
27367;SDS011;14839;48.106;11.618;2022-08-07T04:29:59;4.40;;;3.40;;
27367;SDS011;14839;48.106;11.618;2022-08-07T04:32:25;3.70;;;3.30;;
27367;SDS011;14839;48.106;11.618;2022-08-07T04:34:53;5.47;;;3.37;;
27367;SDS011;14839;48.106;11.618;2022-08-07T04:37:19;4.40;;;3.30;;
27367;SDS011;14839;48.106;11.618;2022-08-07T04:39:45;4.60;;;3.07;;
27367;SDS011;14839;48.106;11.618;2022-08-07T04:42:11;9.77;;;3.30;;
27367;SDS011;14839;48.106;11.618;2022-08-07T04:44:36;4.37;;;3.23;;
27367;SDS011;14839;48.106;11.618;2022-08-07T04:47:12;4.60;;;3.13;;
27367;SDS011;14839;48.106;11.618;2022-08-07T04:49:44;6.00;;;3.40;;
27367;SDS011;14839;48.106;11.618;2022-08-07T04:54:54;4.67;;;3.10;;
27367;SDS011;14839;48.106;11.618;2022-08-07T04:57:34;3.60;;;2.73;;
27367;SDS011;14839;48.106;11.618;2022-08-07T05:00:20;3.90;;;3.23;;
27367;SDS011;14839;48.106;11.618;2022-08-07T05:02:55;4.23;;;3.23;;
27367;SDS011;14839;48.106;11.618;2022-08-07T05:07:57;4.73;;;3.30;;
27367;SDS011;14839;48.106;11.618;2022-08-07T05:10:28;3.47;;;3.10;;
27367;SDS011;14839;48.106;11.618;2022-08-07T05:13:01;5.53;;;2.83;;
27367;SDS011;14839;48.106;11.618;2022-08-07T05:15:52;3.13;;;2.60;;
27367;SDS011;14839;48.106;11.618;2022-08-07T05:18:23;3.63;;;2.87;;
27367;SDS011;14839;48.106;11.618;2022-08-07T05:20:53;2.50;;;2.30;;
27367;SDS011;14839;48.106;11.618;2022-08-07T05:23:24;4.97;;;1.80;;
27367;SDS011;14839;48.106;11.618;2022-08-07T05:25:56;3.27;;;2.30;;
27367;SDS011;14839;48.106;11.618;2022-08-07T05:28:23;3.00;;;2.10;;
27367;SDS011;14839;48.106;11.618;2022-08-07T05:30:51;2.00;;;1.80;;
27367;SDS011;14839;48.106;11.618;2022-08-07T05:33:18;1.83;;;1.73;;
27367;SDS011;14839;48.106;11.618;2022-08-07T05:35:45;1.90;;;1.73;;
27367;SDS011;14839;48.106;11.618;2022-08-07T05:38:11;1.73;;;1.63;;
27367;SDS011;14839;48.106;11.618;2022-08-07T05:40:38;1.77;;;1.60;;
27367;SDS011;14839;48.106;11.618;2022-08-07T05:43:04;2.08;;;1.77;;
27367;SDS011;14839;48.106;11.618;2022-08-07T05:45:30;1.80;;;1.70;;
27367;SDS011;14839;48.106;11.618;2022-08-07T05:47:57;1.67;;;1.58;;
27367;SDS011;14839;48.106;11.618;2022-08-07T05:50:24;2.10;;;1.60;;
27367;SDS011;14839;48.106;11.618;2022-08-07T05:52:50;2.10;;;1.90;;
27367;SDS011;14839;48.106;11.618;2022-08-07T05:55:16;2.10;;;1.90;;
27367;SDS011;14839;48.106;11.618;2022-08-07T05:57:41;1.53;;;1.43;;
27367;SDS011;14839;48.106;11.618;2022-08-07T06:00:09;3.53;;;1.50;;
27367;SDS011;14839;48.106;11.618;2022-08-07T06:02:35;3.33;;;1.87;;
27367;SDS011;14839;48.106;11.618;2022-08-07T06:05:05;2.07;;;1.70;;
27367;SDS011;14839;48.106;11.618;2022-08-07T06:07:35;1.83;;;1.60;;
27367;SDS011;14839;48.106;11.618;2022-08-07T06:10:01;3.17;;;1.80;;
27367;SDS011;14839;48.106;11.618;2022-08-07T06:12:27;1.40;;;1.30;;
27367;SDS011;14839;48.106;11.618;2022-08-07T06:14:54;2.50;;;1.67;;
27367;SDS011;14839;48.106;11.618;2022-08-07T06:17:21;2.13;;;1.77;;
27367;SDS011;14839;48.106;11.618;2022-08-07T06:19:47;1.83;;;1.73;;
27367;SDS011;14839;48.106;11.618;2022-08-07T06:22:14;1.97;;;1.30;;
27367;SDS011;14839;48.106;11.618;2022-08-07T06:24:41;1.47;;;1.37;;
27367;SDS011;14839;48.106;11.618;2022-08-07T06:27:06;1.60;;;1.27;;
27367;SDS011;14839;48.106;11.618;2022-08-07T06:29:32;1.83;;;1.52;;
27367;SDS011;14839;48.106;11.618;2022-08-07T06:31:58;1.95;;;1.42;;
27367;SDS011;14839;48.106;11.618;2022-08-07T06:34:25;1.40;;;1.30;;
27367;SDS011;14839;48.106;11.618;2022-08-07T06:36:51;1.77;;;1.35;;
27367;SDS011;14839;48.106;11.618;2022-08-07T06:39:17;1.67;;;1.25;;
27367;SDS011;14839;48.106;11.618;2022-08-07T06:41:45;2.15;;;1.60;;
27367;SDS011;14839;48.106;11.618;2022-08-07T06:44:16;2.40;;;1.60;;
27367;SDS011;14839;48.106;11.618;2022-08-07T06:46:44;1.58;;;1.48;;
27367;SDS011;14839;48.106;11.618;2022-08-07T06:49:09;1.02;;;1.02;;
27367;SDS011;14839;48.106;11.618;2022-08-07T06:51:35;2.15;;;1.33;;
27367;SDS011;14839;48.106;11.618;2022-08-07T06:54:02;1.55;;;1.20;;
27367;SDS011;14839;48.106;11.618;2022-08-07T06:56:29;3.45;;;1.25;;
27367;SDS011;14839;48.106;11.618;2022-08-07T06:59:15;1.40;;;1.15;;
27367;SDS011;14839;48.106;11.618;2022-08-07T07:01:44;1.70;;;1.48;;
27367;SDS011;14839;48.106;11.618;2022-08-07T07:04:11;1.30;;;1.00;;
27367;SDS011;14839;48.106;11.618;2022-08-07T07:06:37;4.88;;;1.50;;
27367;SDS011;14839;48.106;11.618;2022-08-07T07:11:59;1.50;;;1.30;;
27367;SDS011;14839;48.106;11.618;2022-08-07T07:14:27;1.60;;;1.50;;
27367;SDS011;14839;48.106;11.618;2022-08-07T07:16:56;1.40;;;1.30;;
27367;SDS011;14839;48.106;11.618;2022-08-07T07:19:37;1.30;;;1.20;;
27367;SDS011;14839;48.106;11.618;2022-08-07T07:22:09;1.15;;;1.05;;
27367;SDS011;14839;48.106;11.618;2022-08-07T07:24:37;2.08;;;1.10;;
27367;SDS011;14839;48.106;11.618;2022-08-07T07:27:11;1.27;;;1.10;;
27367;SDS011;14839;48.106;11.618;2022-08-07T07:29:41;0.90;;;0.90;;
27367;SDS011;14839;48.106;11.618;2022-08-07T07:32:11;1.20;;;1.10;;
27367;SDS011;14839;48.106;11.618;2022-08-07T07:34:40;1.90;;;1.38;;
27367;SDS011;14839;48.106;11.618;2022-08-07T07:37:09;3.75;;;0.90;;
27367;SDS011;14839;48.106;11.618;2022-08-07T07:39:37;3.72;;;1.20;;
27367;SDS011;14839;48.106;11.618;2022-08-07T07:42:04;1.38;;;1.13;;
27367;SDS011;14839;48.106;11.618;2022-08-07T07:44:32;1.38;;;1.17;;
27367;SDS011;14839;48.106;11.618;2022-08-07T07:47:02;1.85;;;1.40;;
27367;SDS011;14839;48.106;11.618;2022-08-07T07:49:30;2.25;;;1.15;;
27367;SDS011;14839;48.106;11.618;2022-08-07T07:51:58;1.17;;;1.10;;
27367;SDS011;14839;48.106;11.618;2022-08-07T07:54:25;2.90;;;0.95;;
27367;SDS011;14839;48.106;11.618;2022-08-07T07:56:52;3.95;;;1.35;;
27367;SDS011;14839;48.106;11.618;2022-08-07T07:59:20;1.95;;;1.23;;
27367;SDS011;14839;48.106;11.618;2022-08-07T08:01:47;1.40;;;1.30;;
27367;SDS011;14839;48.106;11.618;2022-08-07T08:04:14;1.70;;;1.23;;
27367;SDS011;14839;48.106;11.618;2022-08-07T08:06:42;1.25;;;1.15;;
27367;SDS011;14839;48.106;11.618;2022-08-07T08:09:09;1.77;;;1.33;;
27367;SDS011;14839;48.106;11.618;2022-08-07T08:11:37;1.88;;;1.30;;
27367;SDS011;14839;48.106;11.618;2022-08-07T08:14:03;2.47;;;1.20;;
27367;SDS011;14839;48.106;11.618;2022-08-07T08:16:47;2.33;;;1.40;;
27367;SDS011;14839;48.106;11.618;2022-08-07T08:19:16;1.40;;;1.10;;
27367;SDS011;14839;48.106;11.618;2022-08-07T08:21:49;1.33;;;1.10;;
27367;SDS011;14839;48.106;11.618;2022-08-07T08:24:36;1.40;;;1.20;;
27367;SDS011;14839;48.106;11.618;2022-08-07T08:27:24;1.87;;;1.10;;
27367;SDS011;14839;48.106;11.618;2022-08-07T08:29:53;1.80;;;1.20;;
27367;SDS011;14839;48.106;11.618;2022-08-07T08:32:26;1.10;;;1.00;;
27367;SDS011;14839;48.106;11.618;2022-08-07T08:34:56;1.58;;;1.48;;
27367;SDS011;14839;48.106;11.618;2022-08-07T08:37:24;1.30;;;1.20;;
27367;SDS011;14839;48.106;11.618;2022-08-07T08:39:52;1.67;;;1.30;;
27367;SDS011;14839;48.106;11.618;2022-08-07T08:45:11;2.70;;;1.30;;
27367;SDS011;14839;48.106;11.618;2022-08-07T08:50:51;2.30;;;1.08;;
27367;SDS011;14839;48.106;11.618;2022-08-07T08:53:32;1.20;;;1.00;;
27367;SDS011;14839;48.106;11.618;2022-08-07T08:56:10;1.30;;;1.20;;
27367;SDS011;14839;48.106;11.618;2022-08-07T08:58:42;1.20;;;1.10;;
27367;SDS011;14839;48.106;11.618;2022-08-07T09:09:58;1.30;;;1.20;;
27367;SDS011;14839;48.106;11.618;2022-08-07T09:17:40;1.00;;;0.93;;
27367;SDS011;14839;48.106;11.618;2022-08-07T09:26:10;1.13;;;1.02;;
27367;SDS011;14839;48.106;11.618;2022-08-07T09:28:58;0.98;;;0.98;;
27367;SDS011;14839;48.106;11.618;2022-08-07T09:31:35;1.30;;;0.98;;
27367;SDS011;14839;48.106;11.618;2022-08-07T09:34:26;1.20;;;1.10;;
27367;SDS011;14839;48.106;11.618;2022-08-07T09:37:19;0.98;;;0.88;;
27367;SDS011;14839;48.106;11.618;2022-08-07T09:40:15;1.60;;;0.95;;
27367;SDS011;14839;48.106;11.618;2022-08-07T09:45:33;2.58;;;1.10;;
27367;SDS011;14839;48.106;11.618;2022-08-07T09:50:38;0.90;;;0.82;;
27367;SDS011;14839;48.106;11.618;2022-08-07T09:53:23;1.10;;;1.00;;
27367;SDS011;14839;48.106;11.618;2022-08-07T09:55:56;1.20;;;1.10;;
27367;SDS011;14839;48.106;11.618;2022-08-07T10:01:29;1.35;;;1.10;;
27367;SDS011;14839;48.106;11.618;2022-08-07T10:13:08;0.90;;;0.90;;
27367;SDS011;14839;48.106;11.618;2022-08-07T10:26:32;1.25;;;1.15;;
27367;SDS011;14839;48.106;11.618;2022-08-07T10:35:09;2.30;;;1.10;;
27367;SDS011;14839;48.106;11.618;2022-08-07T10:37:56;3.25;;;1.15;;
27367;SDS011;14839;48.106;11.618;2022-08-07T10:40:47;0.73;;;0.73;;
27367;SDS011;14839;48.106;11.618;2022-08-07T10:45:57;4.10;;;1.08;;
27367;SDS011;14839;48.106;11.618;2022-08-07T10:53:49;1.25;;;1.15;;
27367;SDS011;14839;48.106;11.618;2022-08-07T10:56:30;1.52;;;1.20;;
27367;SDS011;14839;48.106;11.618;2022-08-07T10:59:31;1.27;;;1.17;;
27367;SDS011;14839;48.106;11.618;2022-08-07T11:02:21;1.90;;;1.52;;
27367;SDS011;14839;48.106;11.618;2022-08-07T11:08:01;1.15;;;1.05;;
27367;SDS011;14839;48.106;11.618;2022-08-07T11:19:08;3.50;;;1.33;;
27367;SDS011;14839;48.106;11.618;2022-08-07T11:27:26;1.33;;;1.23;;
27367;SDS011;14839;48.106;11.618;2022-08-07T11:30:04;4.07;;;1.30;;
27367;SDS011;14839;48.106;11.618;2022-08-07T11:35:16;1.60;;;1.45;;
27367;SDS011;14839;48.106;11.618;2022-08-07T11:37:55;3.53;;;1.25;;
27367;SDS011;14839;48.106;11.618;2022-08-07T11:40:54;1.20;;;1.15;;
27367;SDS011;14839;48.106;11.618;2022-08-07T11:43:24;1.38;;;1.10;;
27367;SDS011;14839;48.106;11.618;2022-08-07T11:49:14;1.42;;;1.27;;
27367;SDS011;14839;48.106;11.618;2022-08-07T11:57:17;1.90;;;1.00;;
27367;SDS011;14839;48.106;11.618;2022-08-07T11:59:52;1.92;;;1.30;;
27367;SDS011;14839;48.106;11.618;2022-08-07T12:11:14;1.08;;;1.00;;
27367;SDS011;14839;48.106;11.618;2022-08-07T12:14:05;1.98;;;1.38;;
27367;SDS011;14839;48.106;11.618;2022-08-07T12:16:37;2.10;;;1.20;;
27367;SDS011;14839;48.106;11.618;2022-08-07T12:19:18;1.73;;;1.00;;
27367;SDS011;14839;48.106;11.618;2022-08-07T12:22:34;1.70;;;1.10;;
27367;SDS011;14839;48.106;11.618;2022-08-07T12:25:05;1.77;;;0.93;;
27367;SDS011;14839;48.106;11.618;2022-08-07T12:28:01;2.22;;;1.33;;
27367;SDS011;14839;48.106;11.618;2022-08-07T12:30:31;1.70;;;1.20;;
27367;SDS011;14839;48.106;11.618;2022-08-07T12:33:00;1.67;;;1.15;;
27367;SDS011;14839;48.106;11.618;2022-08-07T12:35:34;1.45;;;1.35;;
27367;SDS011;14839;48.106;11.618;2022-08-07T12:38:01;2.40;;;1.20;;
27367;SDS011;14839;48.106;11.618;2022-08-07T12:40:29;1.65;;;1.25;;
27367;SDS011;14839;48.106;11.618;2022-08-07T12:42:57;3.28;;;1.40;;
27367;SDS011;14839;48.106;11.618;2022-08-07T12:45:26;1.48;;;1.00;;
27367;SDS011;14839;48.106;11.618;2022-08-07T12:48:15;1.05;;;0.95;;
27367;SDS011;14839;48.106;11.618;2022-08-07T12:50:56;1.55;;;1.05;;
27367;SDS011;14839;48.106;11.618;2022-08-07T12:53:30;1.23;;;1.13;;
27367;SDS011;14839;48.106;11.618;2022-08-07T12:56:02;0.95;;;0.95;;
27367;SDS011;14839;48.106;11.618;2022-08-07T12:58:34;1.20;;;1.10;;
27367;SDS011;14839;48.106;11.618;2022-08-07T13:01:26;1.10;;;1.00;;
27367;SDS011;14839;48.106;11.618;2022-08-07T13:04:22;1.30;;;1.20;;
27367;SDS011;14839;48.106;11.618;2022-08-07T13:15:32;2.42;;;1.20;;
27367;SDS011;14839;48.106;11.618;2022-08-07T13:20:48;3.10;;;1.10;;
27367;SDS011;14839;48.106;11.618;2022-08-07T13:23:28;1.02;;;0.93;;
27367;SDS011;14839;48.106;11.618;2022-08-07T13:26:06;1.13;;;1.05;;
27367;SDS011;14839;48.106;11.618;2022-08-07T13:28:38;1.20;;;0.88;;
27367;SDS011;14839;48.106;11.618;2022-08-07T13:31:11;1.20;;;1.10;;
27367;SDS011;14839;48.106;11.618;2022-08-07T13:36:43;1.20;;;1.10;;
27367;SDS011;14839;48.106;11.618;2022-08-07T13:41:57;1.67;;;1.45;;
27367;SDS011;14839;48.106;11.618;2022-08-07T13:44:26;1.00;;;0.70;;
27367;SDS011;14839;48.106;11.618;2022-08-07T13:46:57;0.98;;;0.88;;
27367;SDS011;14839;48.106;11.618;2022-08-07T13:49:25;1.00;;;0.90;;
27367;SDS011;14839;48.106;11.618;2022-08-07T13:52:06;0.90;;;0.90;;
27367;SDS011;14839;48.106;11.618;2022-08-07T13:54:32;1.23;;;1.17;;
27367;SDS011;14839;48.106;11.618;2022-08-07T13:57:01;1.10;;;0.90;;
27367;SDS011;14839;48.106;11.618;2022-08-07T13:59:33;1.58;;;1.00;;
27367;SDS011;14839;48.106;11.618;2022-08-07T14:02:09;0.95;;;0.95;;
27367;SDS011;14839;48.106;11.618;2022-08-07T14:04:43;1.10;;;1.00;;
27367;SDS011;14839;48.106;11.618;2022-08-07T14:07:32;1.33;;;1.15;;
27367;SDS011;14839;48.106;11.618;2022-08-07T14:10:02;1.20;;;1.10;;
27367;SDS011;14839;48.106;11.618;2022-08-07T14:15:19;1.75;;;1.10;;
27367;SDS011;14839;48.106;11.618;2022-08-07T14:18:19;1.30;;;1.20;;
27367;SDS011;14839;48.106;11.618;2022-08-07T14:20:53;1.35;;;1.15;;
27367;SDS011;14839;48.106;11.618;2022-08-07T14:23:26;1.20;;;0.88;;
27367;SDS011;14839;48.106;11.618;2022-08-07T14:26:16;2.50;;;1.15;;
27367;SDS011;14839;48.106;11.618;2022-08-07T14:28:43;1.40;;;0.90;;
27367;SDS011;14839;48.106;11.618;2022-08-07T14:31:10;1.15;;;1.05;;
27367;SDS011;14839;48.106;11.618;2022-08-07T14:33:37;1.25;;;1.15;;
27367;SDS011;14839;48.106;11.618;2022-08-07T14:36:04;1.10;;;1.00;;
27367;SDS011;14839;48.106;11.618;2022-08-07T14:38:31;3.90;;;1.20;;
27367;SDS011;14839;48.106;11.618;2022-08-07T14:40:59;0.73;;;0.73;;
27367;SDS011;14839;48.106;11.618;2022-08-07T14:43:30;2.15;;;1.30;;
27367;SDS011;14839;48.106;11.618;2022-08-07T14:46:02;1.20;;;1.10;;
27367;SDS011;14839;48.106;11.618;2022-08-07T14:48:34;0.80;;;0.80;;
27367;SDS011;14839;48.106;11.618;2022-08-07T14:51:05;1.40;;;1.30;;
27367;SDS011;14839;48.106;11.618;2022-08-07T14:53:40;1.02;;;0.93;;
27367;SDS011;14839;48.106;11.618;2022-08-07T14:56:09;1.23;;;1.08;;
27367;SDS011;14839;48.106;11.618;2022-08-07T14:58:36;1.02;;;0.93;;
27367;SDS011;14839;48.106;11.618;2022-08-07T15:01:05;1.48;;;1.17;;
27367;SDS011;14839;48.106;11.618;2022-08-07T15:03:33;1.40;;;1.15;;
27367;SDS011;14839;48.106;11.618;2022-08-07T15:06:00;2.40;;;1.20;;
27367;SDS011;14839;48.106;11.618;2022-08-07T15:08:30;1.30;;;1.20;;
27367;SDS011;14839;48.106;11.618;2022-08-07T15:11:00;2.08;;;1.20;;
27367;SDS011;14839;48.106;11.618;2022-08-07T15:13:30;2.60;;;1.40;;
27367;SDS011;14839;48.106;11.618;2022-08-07T15:16:05;1.90;;;1.40;;
27367;SDS011;14839;48.106;11.618;2022-08-07T15:18:43;1.23;;;1.05;;
27367;SDS011;14839;48.106;11.618;2022-08-07T15:21:24;1.58;;;1.27;;
27367;SDS011;14839;48.106;11.618;2022-08-07T15:23:54;1.30;;;1.20;;
27367;SDS011;14839;48.106;11.618;2022-08-07T15:26:24;1.30;;;1.20;;
27367;SDS011;14839;48.106;11.618;2022-08-07T15:29:06;1.95;;;1.40;;
27367;SDS011;14839;48.106;11.618;2022-08-07T15:31:34;4.20;;;1.30;;
27367;SDS011;14839;48.106;11.618;2022-08-07T15:34:00;1.50;;;1.40;;
27367;SDS011;14839;48.106;11.618;2022-08-07T15:36:27;2.00;;;1.30;;
27367;SDS011;14839;48.106;11.618;2022-08-07T15:38:56;1.10;;;1.00;;
27367;SDS011;14839;48.106;11.618;2022-08-07T15:41:31;1.83;;;1.50;;
27367;SDS011;14839;48.106;11.618;2022-08-07T15:44:11;2.13;;;1.67;;
27367;SDS011;14839;48.106;11.618;2022-08-07T15:46:39;4.65;;;1.90;;
27367;SDS011;14839;48.106;11.618;2022-08-07T15:49:09;1.77;;;1.42;;
27367;SDS011;14839;48.106;11.618;2022-08-07T15:51:39;2.10;;;1.80;;
27367;SDS011;14839;48.106;11.618;2022-08-07T15:54:06;1.98;;;1.77;;
27367;SDS011;14839;48.106;11.618;2022-08-07T15:56:34;1.63;;;1.45;;
27367;SDS011;14839;48.106;11.618;2022-08-07T15:59:09;1.77;;;1.45;;
27367;SDS011;14839;48.106;11.618;2022-08-07T16:01:43;1.92;;;1.45;;
27367;SDS011;14839;48.106;11.618;2022-08-07T16:04:12;1.65;;;1.55;;
27367;SDS011;14839;48.106;11.618;2022-08-07T16:06:47;2.05;;;1.45;;
27367;SDS011;14839;48.106;11.618;2022-08-07T16:15:36;1.90;;;1.60;;
27367;SDS011;14839;48.106;11.618;2022-08-07T16:18:27;2.08;;;1.58;;
27367;SDS011;14839;48.106;11.618;2022-08-07T16:21:03;2.17;;;1.65;;
27367;SDS011;14839;48.106;11.618;2022-08-07T16:29:08;1.48;;;1.30;;
27367;SDS011;14839;48.106;11.618;2022-08-07T16:32:01;2.03;;;1.58;;
27367;SDS011;14839;48.106;11.618;2022-08-07T16:34:35;1.40;;;1.30;;
27367;SDS011;14839;48.106;11.618;2022-08-07T16:37:12;2.72;;;1.92;;
27367;SDS011;14839;48.106;11.618;2022-08-07T16:45:34;2.47;;;1.80;;
27367;SDS011;14839;48.106;11.618;2022-08-07T16:51:29;1.95;;;1.50;;
27367;SDS011;14839;48.106;11.618;2022-08-07T16:59:29;1.88;;;1.40;;
27367;SDS011;14839;48.106;11.618;2022-08-07T17:05:03;2.15;;;1.50;;
27367;SDS011;14839;48.106;11.618;2022-08-07T17:07:51;1.55;;;1.45;;
27367;SDS011;14839;48.106;11.618;2022-08-07T17:10:23;1.35;;;1.25;;
27367;SDS011;14839;48.106;11.618;2022-08-07T17:13:43;1.27;;;1.17;;
27367;SDS011;14839;48.106;11.618;2022-08-07T17:15:50;2.23;;;1.60;;
27367;SDS011;14839;48.106;11.618;2022-08-07T17:21:25;2.70;;;1.70;;
27367;SDS011;14839;48.106;11.618;2022-08-07T17:27:09;1.50;;;1.40;;
27367;SDS011;14839;48.106;11.618;2022-08-07T17:29:42;1.92;;;1.63;;
27367;SDS011;14839;48.106;11.618;2022-08-07T17:32:26;2.53;;;1.67;;
27367;SDS011;14839;48.106;11.618;2022-08-07T17:35:11;1.60;;;1.45;;
27367;SDS011;14839;48.106;11.618;2022-08-07T17:37:57;3.83;;;1.70;;
27367;SDS011;14839;48.106;11.618;2022-08-07T17:40:48;1.88;;;1.33;;
27367;SDS011;14839;48.106;11.618;2022-08-07T17:43:38;1.33;;;1.23;;
27367;SDS011;14839;48.106;11.618;2022-08-07T17:46:08;2.17;;;1.70;;
27367;SDS011;14839;48.106;11.618;2022-08-07T17:48:38;1.60;;;1.50;;
27367;SDS011;14839;48.106;11.618;2022-08-07T17:51:36;1.43;;;1.33;;
27367;SDS011;14839;48.106;11.618;2022-08-07T17:54:12;1.77;;;1.60;;
27367;SDS011;14839;48.106;11.618;2022-08-07T17:57:00;1.85;;;1.70;;
27367;SDS011;14839;48.106;11.618;2022-08-07T17:59:31;2.87;;;1.67;;
27367;SDS011;14839;48.106;11.618;2022-08-07T18:02:06;1.40;;;1.27;;
27367;SDS011;14839;48.106;11.618;2022-08-07T18:08:07;1.97;;;1.50;;
27367;SDS011;14839;48.106;11.618;2022-08-07T18:10:52;1.77;;;1.53;;
27367;SDS011;14839;48.106;11.618;2022-08-07T18:16:16;2.23;;;1.40;;
27367;SDS011;14839;48.106;11.618;2022-08-07T18:18:56;2.10;;;1.50;;
27367;SDS011;14839;48.106;11.618;2022-08-07T18:21:37;2.37;;;1.50;;
27367;SDS011;14839;48.106;11.618;2022-08-07T18:34:44;1.80;;;1.70;;
27367;SDS011;14839;48.106;11.618;2022-08-07T18:37:32;1.87;;;1.50;;
27367;SDS011;14839;48.106;11.618;2022-08-07T18:40:27;1.50;;;1.40;;
27367;SDS011;14839;48.106;11.618;2022-08-07T18:42:56;2.63;;;1.57;;
27367;SDS011;14839;48.106;11.618;2022-08-07T19:00:19;3.93;;;2.00;;
27367;SDS011;14839;48.106;11.618;2022-08-07T19:03:01;2.20;;;1.40;;
27367;SDS011;14839;48.106;11.618;2022-08-07T19:05:38;2.83;;;1.67;;
27367;SDS011;14839;48.106;11.618;2022-08-07T19:08:14;3.10;;;1.90;;
27367;SDS011;14839;48.106;11.618;2022-08-07T19:10:48;2.10;;;1.73;;
27367;SDS011;14839;48.106;11.618;2022-08-07T19:13:27;1.50;;;1.40;;
27367;SDS011;14839;48.106;11.618;2022-08-07T19:16:22;1.77;;;1.67;;
27367;SDS011;14839;48.106;11.618;2022-08-07T19:24:28;1.63;;;1.40;;
27367;SDS011;14839;48.106;11.618;2022-08-07T19:27:06;2.07;;;1.63;;
27367;SDS011;14839;48.106;11.618;2022-08-07T19:29:34;1.60;;;1.40;;
27367;SDS011;14839;48.106;11.618;2022-08-07T19:32:04;2.37;;;1.57;;
27367;SDS011;14839;48.106;11.618;2022-08-07T19:34:31;2.20;;;1.70;;
27367;SDS011;14839;48.106;11.618;2022-08-07T19:36:58;2.10;;;1.70;;
27367;SDS011;14839;48.106;11.618;2022-08-07T19:39:26;1.63;;;1.50;;
27367;SDS011;14839;48.106;11.618;2022-08-07T19:41:55;2.50;;;1.57;;
27367;SDS011;14839;48.106;11.618;2022-08-07T19:44:32;3.70;;;1.57;;
27367;SDS011;14839;48.106;11.618;2022-08-07T19:47:05;2.03;;;1.83;;
27367;SDS011;14839;48.106;11.618;2022-08-07T19:49:35;2.00;;;1.37;;
27367;SDS011;14839;48.106;11.618;2022-08-07T19:52:12;2.67;;;1.60;;
27367;SDS011;14839;48.106;11.618;2022-08-07T19:54:43;2.43;;;1.77;;
27367;SDS011;14839;48.106;11.618;2022-08-07T19:57:12;1.70;;;1.60;;
27367;SDS011;14839;48.106;11.618;2022-08-07T19:59:42;1.73;;;1.63;;
27367;SDS011;14839;48.106;11.618;2022-08-07T20:02:13;1.93;;;1.83;;
27367;SDS011;14839;48.106;11.618;2022-08-07T20:04:48;2.30;;;1.90;;
27367;SDS011;14839;48.106;11.618;2022-08-07T20:07:15;1.97;;;1.73;;
27367;SDS011;14839;48.106;11.618;2022-08-07T20:09:43;2.20;;;1.90;;
27367;SDS011;14839;48.106;11.618;2022-08-07T20:12:10;4.13;;;1.90;;
27367;SDS011;14839;48.106;11.618;2022-08-07T20:14:39;1.77;;;1.53;;
27367;SDS011;14839;48.106;11.618;2022-08-07T20:17:09;2.13;;;1.80;;
27367;SDS011;14839;48.106;11.618;2022-08-07T20:19:36;1.70;;;1.60;;
27367;SDS011;14839;48.106;11.618;2022-08-07T20:22:10;2.60;;;1.93;;
27367;SDS011;14839;48.106;11.618;2022-08-07T20:24:43;2.00;;;1.80;;
27367;SDS011;14839;48.106;11.618;2022-08-07T20:27:12;2.90;;;2.03;;
27367;SDS011;14839;48.106;11.618;2022-08-07T20:29:47;3.07;;;1.90;;
27367;SDS011;14839;48.106;11.618;2022-08-07T20:32:16;3.20;;;1.87;;
27367;SDS011;14839;48.106;11.618;2022-08-07T20:34:49;2.30;;;1.70;;
27367;SDS011;14839;48.106;11.618;2022-08-07T20:37:24;2.33;;;1.90;;
27367;SDS011;14839;48.106;11.618;2022-08-07T20:39:52;2.90;;;2.00;;
27367;SDS011;14839;48.106;11.618;2022-08-07T20:42:19;2.27;;;1.70;;
27367;SDS011;14839;48.106;11.618;2022-08-07T20:44:48;2.10;;;1.70;;
27367;SDS011;14839;48.106;11.618;2022-08-07T20:47:17;1.57;;;1.47;;
27367;SDS011;14839;48.106;11.618;2022-08-07T20:49:49;1.80;;;1.30;;
27367;SDS011;14839;48.106;11.618;2022-08-07T20:52:17;2.47;;;1.87;;
27367;SDS011;14839;48.106;11.618;2022-08-07T20:54:50;1.87;;;1.50;;
27367;SDS011;14839;48.106;11.618;2022-08-07T20:57:19;1.73;;;1.53;;
27367;SDS011;14839;48.106;11.618;2022-08-07T20:59:47;2.27;;;1.90;;
27367;SDS011;14839;48.106;11.618;2022-08-07T21:02:15;2.17;;;1.83;;
27367;SDS011;14839;48.106;11.618;2022-08-07T21:05:02;2.67;;;1.67;;
27367;SDS011;14839;48.106;11.618;2022-08-07T21:07:33;2.83;;;2.00;;
27367;SDS011;14839;48.106;11.618;2022-08-07T21:10:00;2.60;;;1.57;;
27367;SDS011;14839;48.106;11.618;2022-08-07T21:12:32;2.33;;;2.07;;
27367;SDS011;14839;48.106;11.618;2022-08-07T21:15:00;2.07;;;1.87;;
27367;SDS011;14839;48.106;11.618;2022-08-07T21:17:31;3.33;;;1.80;;
27367;SDS011;14839;48.106;11.618;2022-08-07T21:20:02;2.00;;;1.73;;
27367;SDS011;14839;48.106;11.618;2022-08-07T21:22:30;2.03;;;1.83;;
